sensor_id;sensor_type;location;lat;lon;timestamp;P1;P2;P0
73832;PMS7003;62179;48.444;-4.464;2022-10-20T17:32:33;2.00;2.00;1.00
73832;PMS7003;62179;48.444;-4.464;2022-10-20T17:35:00;4.75;3.00;1.75
73832;PMS7003;62179;48.444;-4.464;2022-10-20T17:37:25;1.00;1.00;0.75
73832;PMS7003;62179;48.444;-4.464;2022-10-20T17:39:51;3.50;2.50;1.00
73832;PMS7003;62179;48.444;-4.464;2022-10-20T17:42:17;2.50;1.00;1.00
73832;PMS7003;62179;48.444;-4.464;2022-10-20T17:44:42;2.25;2.00;1.25
73832;PMS7003;62179;48.444;-4.464;2022-10-20T17:47:07;2.00;2.00;1.00
73832;PMS7003;62179;48.444;-4.464;2022-10-20T17:49:33;3.25;3.00;2.00
73832;PMS7003;62179;48.444;-4.464;2022-10-20T17:51:58;4.00;3.00;1.75
73832;PMS7003;62179;48.444;-4.464;2022-10-20T17:54:24;3.50;3.50;2.00
73832;PMS7003;62179;48.444;-4.464;2022-10-20T17:56:49;1.50;1.50;1.25
73832;PMS7003;62179;48.444;-4.464;2022-10-20T17:59:16;7.00;4.00;3.00
73832;PMS7003;62179;48.444;-4.464;2022-10-20T18:01:42;5.00;2.75;2.75
73832;PMS7003;62179;48.444;-4.464;2022-10-20T18:04:11;3.00;2.25;1.50
73832;PMS7003;62179;48.444;-4.464;2022-10-20T18:06:38;3.50;2.00;2.00
73832;PMS7003;62179;48.444;-4.464;2022-10-20T18:09:11;6.00;3.50;2.00
73832;PMS7003;62179;48.444;-4.464;2022-10-20T18:11:39;6.50;4.00;3.00
73832;PMS7003;62179;48.444;-4.464;2022-10-20T18:14:07;2.25;2.00;2.00
73832;PMS7003;62179;48.444;-4.464;2022-10-20T18:16:33;6.00;4.00;2.00
73832;PMS7003;62179;48.444;-4.464;2022-10-20T18:19:00;3.50;2.25;2.00
73832;PMS7003;62179;48.444;-4.464;2022-10-20T18:21:27;8.75;8.75;5.00
73832;PMS7003;62179;48.444;-4.464;2022-10-20T18:23:53;4.00;3.00;2.75
73832;PMS7003;62179;48.444;-4.464;2022-10-20T18:26:20;4.00;3.00;3.00
73832;PMS7003;62179;48.444;-4.464;2022-10-20T18:28:47;3.50;2.50;2.00
73832;PMS7003;62179;48.444;-4.464;2022-10-20T18:31:14;4.00;3.00;2.00
73832;PMS7003;62179;48.444;-4.464;2022-10-20T18:33:42;8.50;6.75;3.75
73832;PMS7003;62179;48.444;-4.464;2022-10-20T18:36:09;5.00;5.00;4.25
73832;PMS7003;62179;48.444;-4.464;2022-10-20T18:38:36;8.25;5.75;3.50
73832;PMS7003;62179;48.444;-4.464;2022-10-20T18:41:13;5.50;4.25;2.00
73832;PMS7003;62179;48.444;-4.464;2022-10-20T18:43:41;8.00;5.00;3.50
73832;PMS7003;62179;48.444;-4.464;2022-10-20T18:46:06;8.00;5.00;2.75
73832;PMS7003;62179;48.444;-4.464;2022-10-20T18:48:34;6.75;4.75;3.00
73832;PMS7003;62179;48.444;-4.464;2022-10-20T18:51:02;5.50;5.50;3.50
73832;PMS7003;62179;48.444;-4.464;2022-10-20T18:53:29;5.50;5.50;4.00
73832;PMS7003;62179;48.444;-4.464;2022-10-20T18:56:06;5.25;4.25;3.25
73832;PMS7003;62179;48.444;-4.464;2022-10-20T18:58:34;9.00;5.75;4.00
73832;PMS7003;62179;48.444;-4.464;2022-10-20T19:01:06;7.00;7.00;4.75
73832;PMS7003;62179;48.444;-4.464;2022-10-20T19:03:34;8.75;6.50;4.75
73832;PMS7003;62179;48.444;-4.464;2022-10-20T19:06:00;7.50;5.00;3.00
73832;PMS7003;62179;48.444;-4.464;2022-10-20T19:08:29;5.75;5.75;3.75
73832;PMS7003;62179;48.444;-4.464;2022-10-20T19:10:55;4.75;4.50;3.00
73832;PMS7003;62179;48.444;-4.464;2022-10-20T19:13:28;5.00;5.00;4.50
73832;PMS7003;62179;48.444;-4.464;2022-10-20T19:15:54;6.75;5.75;4.50
73832;PMS7003;62179;48.444;-4.464;2022-10-20T19:18:22;7.00;7.00;5.75
73832;PMS7003;62179;48.444;-4.464;2022-10-20T19:20:59;5.75;5.75;4.00
73832;PMS7003;62179;48.444;-4.464;2022-10-20T19:23:26;6.75;5.25;3.75
73832;PMS7003;62179;48.444;-4.464;2022-10-20T19:28:29;6.00;5.50;4.25
73832;PMS7003;62179;48.444;-4.464;2022-10-20T19:30:56;6.50;5.00;3.75
73832;PMS7003;62179;48.444;-4.464;2022-10-20T19:33:21;6.25;5.50;3.75
73832;PMS7003;62179;48.444;-4.464;2022-10-20T19:35:48;5.25;3.75;3.00
73832;PMS7003;62179;48.444;-4.464;2022-10-20T19:38:14;6.00;3.25;2.75
73832;PMS7003;62179;48.444;-4.464;2022-10-20T19:40:40;8.25;5.50;4.00
73832;PMS7003;62179;48.444;-4.464;2022-10-20T19:43:05;8.00;6.00;4.50
73832;PMS7003;62179;48.444;-4.464;2022-10-20T19:45:31;4.00;4.00;3.00
73832;PMS7003;62179;48.444;-4.464;2022-10-20T19:47:56;3.50;3.25;2.00
73832;PMS7003;62179;48.444;-4.464;2022-10-20T19:50:22;4.00;3.50;2.00
73832;PMS7003;62179;48.444;-4.464;2022-10-20T19:52:48;5.25;5.25;3.75
73832;PMS7003;62179;48.444;-4.464;2022-10-20T19:55:13;4.00;3.50;2.25
73832;PMS7003;62179;48.444;-4.464;2022-10-20T19:57:39;2.50;2.50;2.00
73832;PMS7003;62179;48.444;-4.464;2022-10-20T20:00:05;4.75;4.00;2.00
73832;PMS7003;62179;48.444;-4.464;2022-10-20T20:02:31;3.25;3.00;2.75
73832;PMS7003;62179;48.444;-4.464;2022-10-20T20:04:57;5.00;5.00;3.00
